sensor_id;sensor_type;location;lat;lon;timestamp;P1;durP1;ratioP1;P2;durP2;ratioP2
48667;SDS011;34453;52.198;5.004;2022-12-20T00:01:32;5.00;;;3.83;;
48667;SDS011;34453;52.198;5.004;2022-12-20T00:03:59;8.73;;;3.90;;
48667;SDS011;34453;52.198;5.004;2022-12-20T00:06:26;8.65;;;3.35;;
48667;SDS011;34453;52.198;5.004;2022-12-20T00:08:55;6.38;;;4.35;;
48667;SDS011;34453;52.198;5.004;2022-12-20T00:11:21;4.15;;;3.75;;
48667;SDS011;34453;52.198;5.004;2022-12-20T00:13:46;5.32;;;3.45;;
48667;SDS011;34453;52.198;5.004;2022-12-20T00:16:13;9.75;;;3.47;;
48667;SDS011;34453;52.198;5.004;2022-12-20T00:18:38;5.65;;;3.70;;
48667;SDS011;34453;52.198;5.004;2022-12-20T00:21:05;3.90;;;3.60;;
48667;SDS011;34453;52.198;5.004;2022-12-20T00:23:30;3.25;;;3.05;;
48667;SDS011;34453;52.198;5.004;2022-12-20T00:26:02;8.73;;;3.78;;
48667;SDS011;34453;52.198;5.004;2022-12-20T00:28:28;8.13;;;3.67;;
48667;SDS011;34453;52.198;5.004;2022-12-20T00:30:54;5.15;;;3.40;;
48667;SDS011;34453;52.198;5.004;2022-12-20T00:33:19;3.30;;;3.03;;
48667;SDS011;34453;52.198;5.004;2022-12-20T00:35:44;4.88;;;3.22;;
48667;SDS011;34453;52.198;5.004;2022-12-20T00:38:10;4.97;;;3.83;;
48667;SDS011;34453;52.198;5.004;2022-12-20T00:40:35;4.65;;;3.38;;
48667;SDS011;34453;52.198;5.004;2022-12-20T00:43:00;7.68;;;3.42;;
48667;SDS011;34453;52.198;5.004;2022-12-20T00:45:25;6.38;;;3.42;;
48667;SDS011;34453;52.198;5.004;2022-12-20T00:47:50;5.13;;;3.42;;
48667;SDS011;34453;52.198;5.004;2022-12-20T00:50:16;3.25;;;3.05;;
48667;SDS011;34453;52.198;5.004;2022-12-20T00:52:41;3.88;;;3.45;;
48667;SDS011;34453;52.198;5.004;2022-12-20T00:55:06;6.43;;;3.05;;
48667;SDS011;34453;52.198;5.004;2022-12-20T00:57:32;6.68;;;3.53;;
48667;SDS011;34453;52.198;5.004;2022-12-20T00:59:57;6.68;;;5.38;;
48667;SDS011;34453;52.198;5.004;2022-12-20T01:02:22;5.15;;;3.17;;
48667;SDS011;34453;52.198;5.004;2022-12-20T01:04:48;3.90;;;3.60;;
48667;SDS011;34453;52.198;5.004;2022-12-20T01:07:13;4.80;;;2.92;;
48667;SDS011;34453;52.198;5.004;2022-12-20T01:09:38;3.30;;;3.00;;
48667;SDS011;34453;52.198;5.004;2022-12-20T01:12:03;3.28;;;3.08;;
48667;SDS011;34453;52.198;5.004;2022-12-20T01:14:29;3.85;;;3.53;;
48667;SDS011;34453;52.198;5.004;2022-12-20T01:16:54;7.72;;;2.83;;
48667;SDS011;34453;52.198;5.004;2022-12-20T01:19:19;3.20;;;2.90;;
48667;SDS011;34453;52.198;5.004;2022-12-20T01:21:45;5.10;;;3.10;;
48667;SDS011;34453;52.198;5.004;2022-12-20T01:24:11;3.42;;;3.08;;
48667;SDS011;34453;52.198;5.004;2022-12-20T01:26:36;5.13;;;3.13;;
48667;SDS011;34453;52.198;5.004;2022-12-20T01:29:01;4.72;;;3.95;;
48667;SDS011;34453;52.198;5.004;2022-12-20T01:31:28;3.75;;;3.33;;
48667;SDS011;34453;52.198;5.004;2022-12-20T01:33:54;5.93;;;3.28;;
48667;SDS011;34453;52.198;5.004;2022-12-20T01:36:20;4.88;;;3.65;;
48667;SDS011;34453;52.198;5.004;2022-12-20T01:38:45;3.78;;;3.22;;
48667;SDS011;34453;52.198;5.004;2022-12-20T01:41:15;8.10;;;3.67;;
48667;SDS011;34453;52.198;5.004;2022-12-20T01:43:50;3.28;;;3.00;;
48667;SDS011;34453;52.198;5.004;2022-12-20T01:46:16;8.40;;;4.65;;
48667;SDS011;34453;52.198;5.004;2022-12-20T01:48:43;3.83;;;3.42;;
48667;SDS011;34453;52.198;5.004;2022-12-20T01:51:10;4.18;;;3.70;;
48667;SDS011;34453;52.198;5.004;2022-12-20T01:53:35;5.40;;;3.55;;
48667;SDS011;34453;52.198;5.004;2022-12-20T01:56:02;8.02;;;2.78;;
48667;SDS011;34453;52.198;5.004;2022-12-20T01:58:29;4.55;;;3.42;;
48667;SDS011;34453;52.198;5.004;2022-12-20T02:00:54;6.78;;;3.50;;
48667;SDS011;34453;52.198;5.004;2022-12-20T02:03:19;3.97;;;3.60;;
48667;SDS011;34453;52.198;5.004;2022-12-20T02:05:45;4.50;;;3.55;;
48667;SDS011;34453;52.198;5.004;2022-12-20T02:08:11;4.35;;;3.35;;
48667;SDS011;34453;52.198;5.004;2022-12-20T02:13:11;3.95;;;3.10;;
48667;SDS011;34453;52.198;5.004;2022-12-20T02:15:46;3.50;;;3.30;;
48667;SDS011;34453;52.198;5.004;2022-12-20T02:18:25;4.90;;;2.42;;
48667;SDS011;34453;52.198;5.004;2022-12-20T02:31:42;2.92;;;2.72;;
48667;SDS011;34453;52.198;5.004;2022-12-20T02:34:09;3.90;;;2.88;;
48667;SDS011;34453;52.198;5.004;2022-12-20T02:36:34;15.20;;;3.85;;
48667;SDS011;34453;52.198;5.004;2022-12-20T02:39:00;2.85;;;2.70;;
48667;SDS011;34453;52.198;5.004;2022-12-20T02:41:26;7.05;;;3.10;;
48667;SDS011;34453;52.198;5.004;2022-12-20T02:44:00;10.55;;;3.15;;
48667;SDS011;34453;52.198;5.004;2022-12-20T02:46:45;2.90;;;2.70;;
48667;SDS011;34453;52.198;5.004;2022-12-20T02:49:12;5.80;;;3.10;;
48667;SDS011;34453;52.198;5.004;2022-12-20T02:51:38;4.13;;;3.50;;
48667;SDS011;34453;52.198;5.004;2022-12-20T02:54:06;3.50;;;3.22;;
48667;SDS011;34453;52.198;5.004;2022-12-20T02:56:36;7.75;;;3.00;;
48667;SDS011;34453;52.198;5.004;2022-12-20T03:01:32;3.40;;;2.80;;
48667;SDS011;34453;52.198;5.004;2022-12-20T03:04:00;6.18;;;3.70;;
48667;SDS011;34453;52.198;5.004;2022-12-20T03:06:26;4.20;;;3.30;;
48667;SDS011;34453;52.198;5.004;2022-12-20T03:08:52;5.18;;;3.13;;
48667;SDS011;34453;52.198;5.004;2022-12-20T03:11:17;3.03;;;2.83;;
48667;SDS011;34453;52.198;5.004;2022-12-20T03:13:44;5.28;;;3.35;;
48667;SDS011;34453;52.198;5.004;2022-12-20T03:16:09;4.50;;;4.10;;
48667;SDS011;34453;52.198;5.004;2022-12-20T03:18:35;3.65;;;2.75;;
48667;SDS011;34453;52.198;5.004;2022-12-20T03:21:00;3.85;;;3.47;;
48667;SDS011;34453;52.198;5.004;2022-12-20T03:23:25;4.65;;;3.05;;
48667;SDS011;34453;52.198;5.004;2022-12-20T03:25:51;3.33;;;3.08;;
48667;SDS011;34453;52.198;5.004;2022-12-20T03:28:16;3.17;;;2.83;;
48667;SDS011;34453;52.198;5.004;2022-12-20T03:30:41;3.05;;;2.80;;
48667;SDS011;34453;52.198;5.004;2022-12-20T03:33:07;5.13;;;3.25;;
48667;SDS011;34453;52.198;5.004;2022-12-20T03:35:32;5.65;;;4.15;;
48667;SDS011;34453;52.198;5.004;2022-12-20T03:37:57;4.30;;;2.70;;
48667;SDS011;34453;52.198;5.004;2022-12-20T03:40:23;9.32;;;3.10;;
48667;SDS011;34453;52.198;5.004;2022-12-20T03:42:48;3.70;;;2.60;;
48667;SDS011;34453;52.198;5.004;2022-12-20T03:45:13;3.72;;;3.05;;
48667;SDS011;34453;52.198;5.004;2022-12-20T03:47:39;4.43;;;2.80;;
48667;SDS011;34453;52.198;5.004;2022-12-20T03:50:05;4.60;;;2.75;;
48667;SDS011;34453;52.198;5.004;2022-12-20T03:52:30;8.02;;;2.92;;
48667;SDS011;34453;52.198;5.004;2022-12-20T03:54:56;3.20;;;3.00;;
48667;SDS011;34453;52.198;5.004;2022-12-20T03:57:21;2.78;;;2.60;;
48667;SDS011;34453;52.198;5.004;2022-12-20T03:59:46;4.00;;;2.95;;
48667;SDS011;34453;52.198;5.004;2022-12-20T04:02:12;8.30;;;2.90;;
48667;SDS011;34453;52.198;5.004;2022-12-20T04:04:37;6.45;;;3.42;;
48667;SDS011;34453;52.198;5.004;2022-12-20T04:07:02;2.78;;;2.53;;
48667;SDS011;34453;52.198;5.004;2022-12-20T04:09:27;5.18;;;3.00;;
48667;SDS011;34453;52.198;5.004;2022-12-20T04:11:53;3.45;;;2.83;;
48667;SDS011;34453;52.198;5.004;2022-12-20T04:14:18;5.28;;;2.80;;
48667;SDS011;34453;52.198;5.004;2022-12-20T04:16:43;2.58;;;2.38;;
48667;SDS011;34453;52.198;5.004;2022-12-20T04:19:09;3.20;;;2.63;;
48667;SDS011;34453;52.198;5.004;2022-12-20T04:21:34;3.00;;;2.80;;
48667;SDS011;34453;52.198;5.004;2022-12-20T04:24:00;4.32;;;2.90;;
48667;SDS011;34453;52.198;5.004;2022-12-20T04:26:26;6.43;;;2.78;;
48667;SDS011;34453;52.198;5.004;2022-12-20T04:28:51;3.38;;;3.17;;
48667;SDS011;34453;52.198;5.004;2022-12-20T04:31:16;5.47;;;2.92;;
48667;SDS011;34453;52.198;5.004;2022-12-20T04:33:42;4.60;;;2.95;;
48667;SDS011;34453;52.198;5.004;2022-12-20T04:36:07;5.78;;;2.63;;
48667;SDS011;34453;52.198;5.004;2022-12-20T04:38:33;2.80;;;2.65;;
48667;SDS011;34453;52.198;5.004;2022-12-20T04:40:58;3.72;;;3.42;;
48667;SDS011;34453;52.198;5.004;2022-12-20T04:43:23;5.45;;;3.00;;
48667;SDS011;34453;52.198;5.004;2022-12-20T04:45:49;4.10;;;2.97;;
48667;SDS011;34453;52.198;5.004;2022-12-20T04:48:16;3.78;;;2.78;;
48667;SDS011;34453;52.198;5.004;2022-12-20T04:50:41;4.43;;;3.03;;
48667;SDS011;34453;52.198;5.004;2022-12-20T04:53:08;3.28;;;3.05;;
48667;SDS011;34453;52.198;5.004;2022-12-20T04:55:53;3.95;;;3.50;;
48667;SDS011;34453;52.198;5.004;2022-12-20T04:58:18;3.97;;;3.03;;
48667;SDS011;34453;52.198;5.004;2022-12-20T05:00:44;4.30;;;3.40;;
48667;SDS011;34453;52.198;5.004;2022-12-20T05:03:09;3.00;;;2.75;;
48667;SDS011;34453;52.198;5.004;2022-12-20T05:05:34;2.95;;;2.60;;
48667;SDS011;34453;52.198;5.004;2022-12-20T05:08:00;4.95;;;3.13;;
48667;SDS011;34453;52.198;5.004;2022-12-20T05:10:25;3.75;;;2.90;;
48667;SDS011;34453;52.198;5.004;2022-12-20T05:12:51;5.45;;;3.13;;
48667;SDS011;34453;52.198;5.004;2022-12-20T05:15:16;8.77;;;3.38;;
48667;SDS011;34453;52.198;5.004;2022-12-20T05:17:41;7.80;;;3.40;;
48667;SDS011;34453;52.198;5.004;2022-12-20T05:20:07;4.20;;;3.72;;
48667;SDS011;34453;52.198;5.004;2022-12-20T05:22:32;4.30;;;3.22;;
48667;SDS011;34453;52.198;5.004;2022-12-20T05:25:16;4.95;;;4.25;;
48667;SDS011;34453;52.198;5.004;2022-12-20T05:28:00;4.07;;;2.80;;
48667;SDS011;34453;52.198;5.004;2022-12-20T05:30:26;5.05;;;3.83;;
48667;SDS011;34453;52.198;5.004;2022-12-20T05:32:51;3.28;;;3.05;;
48667;SDS011;34453;52.198;5.004;2022-12-20T05:35:16;4.85;;;3.95;;
48667;SDS011;34453;52.198;5.004;2022-12-20T05:37:41;7.15;;;3.25;;
48667;SDS011;34453;52.198;5.004;2022-12-20T05:40:07;6.15;;;3.70;;
48667;SDS011;34453;52.198;5.004;2022-12-20T05:42:32;8.07;;;3.33;;
48667;SDS011;34453;52.198;5.004;2022-12-20T05:44:57;5.05;;;4.47;;
48667;SDS011;34453;52.198;5.004;2022-12-20T05:47:23;4.03;;;3.72;;
48667;SDS011;34453;52.198;5.004;2022-12-20T05:49:48;3.55;;;3.33;;
48667;SDS011;34453;52.198;5.004;2022-12-20T05:52:14;6.03;;;3.25;;
48667;SDS011;34453;52.198;5.004;2022-12-20T05:54:39;3.70;;;3.40;;
48667;SDS011;34453;52.198;5.004;2022-12-20T05:57:05;4.68;;;3.45;;
48667;SDS011;34453;52.198;5.004;2022-12-20T05:59:30;4.40;;;3.65;;
48667;SDS011;34453;52.198;5.004;2022-12-20T06:01:55;4.95;;;3.88;;
48667;SDS011;34453;52.198;5.004;2022-12-20T06:04:20;7.75;;;3.25;;
48667;SDS011;34453;52.198;5.004;2022-12-20T06:06:46;3.78;;;3.40;;
48667;SDS011;34453;52.198;5.004;2022-12-20T06:09:11;4.03;;;3.17;;
48667;SDS011;34453;52.198;5.004;2022-12-20T06:11:36;5.75;;;3.22;;
48667;SDS011;34453;52.198;5.004;2022-12-20T06:14:02;3.90;;;2.88;;
48667;SDS011;34453;52.198;5.004;2022-12-20T06:16:27;4.82;;;3.72;;
48667;SDS011;34453;52.198;5.004;2022-12-20T06:18:52;3.40;;;3.20;;
48667;SDS011;34453;52.198;5.004;2022-12-20T06:21:18;5.32;;;2.58;;
48667;SDS011;34453;52.198;5.004;2022-12-20T06:23:43;3.03;;;2.80;;
48667;SDS011;34453;52.198;5.004;2022-12-20T06:26:08;3.60;;;3.13;;
48667;SDS011;34453;52.198;5.004;2022-12-20T06:28:34;3.80;;;3.42;;
48667;SDS011;34453;52.198;5.004;2022-12-20T06:31:00;3.72;;;2.90;;
48667;SDS011;34453;52.198;5.004;2022-12-20T06:33:25;4.53;;;2.95;;
48667;SDS011;34453;52.198;5.004;2022-12-20T06:35:51;2.70;;;2.50;;
48667;SDS011;34453;52.198;5.004;2022-12-20T06:38:16;3.80;;;2.55;;
48667;SDS011;34453;52.198;5.004;2022-12-20T06:40:42;4.72;;;3.22;;
48667;SDS011;34453;52.198;5.004;2022-12-20T06:43:07;6.13;;;2.65;;
48667;SDS011;34453;52.198;5.004;2022-12-20T06:45:33;3.50;;;3.15;;
48667;SDS011;34453;52.198;5.004;2022-12-20T06:47:58;4.38;;;2.65;;
48667;SDS011;34453;52.198;5.004;2022-12-20T06:50:23;3.17;;;2.88;;
48667;SDS011;34453;52.198;5.004;2022-12-20T06:52:49;2.80;;;2.60;;
48667;SDS011;34453;52.198;5.004;2022-12-20T06:55:14;10.32;;;3.22;;
48667;SDS011;34453;52.198;5.004;2022-12-20T06:57:39;2.28;;;2.10;;
48667;SDS011;34453;52.198;5.004;2022-12-20T07:00:05;3.97;;;2.58;;
48667;SDS011;34453;52.198;5.004;2022-12-20T07:02:32;5.93;;;2.58;;
48667;SDS011;34453;52.198;5.004;2022-12-20T07:04:57;2.65;;;2.47;;
48667;SDS011;34453;52.198;5.004;2022-12-20T07:07:22;7.85;;;2.38;;
48667;SDS011;34453;52.198;5.004;2022-12-20T07:09:48;3.42;;;2.60;;
48667;SDS011;34453;52.198;5.004;2022-12-20T07:12:13;2.58;;;2.38;;
48667;SDS011;34453;52.198;5.004;2022-12-20T07:14:38;2.47;;;2.33;;
48667;SDS011;34453;52.198;5.004;2022-12-20T07:17:04;3.53;;;2.22;;
48667;SDS011;34453;52.198;5.004;2022-12-20T07:19:29;8.70;;;2.50;;
48667;SDS011;34453;52.198;5.004;2022-12-20T07:21:55;2.78;;;2.33;;
48667;SDS011;34453;52.198;5.004;2022-12-20T07:24:20;2.55;;;2.15;;
48667;SDS011;34453;52.198;5.004;2022-12-20T07:26:45;4.53;;;2.83;;
48667;SDS011;34453;52.198;5.004;2022-12-20T07:29:11;1.98;;;1.77;;
48667;SDS011;34453;52.198;5.004;2022-12-20T07:31:37;1.90;;;1.60;;
48667;SDS011;34453;52.198;5.004;2022-12-20T07:34:02;4.20;;;2.25;;
48667;SDS011;34453;52.198;5.004;2022-12-20T07:36:27;2.42;;;2.22;;
48667;SDS011;34453;52.198;5.004;2022-12-20T07:38:52;3.42;;;2.45;;
48667;SDS011;34453;52.198;5.004;2022-12-20T07:41:18;2.10;;;2.00;;
48667;SDS011;34453;52.198;5.004;2022-12-20T07:43:43;2.78;;;2.05;;
48667;SDS011;34453;52.198;5.004;2022-12-20T07:46:09;3.25;;;1.98;;
48667;SDS011;34453;52.198;5.004;2022-12-20T07:48:35;8.50;;;2.45;;
48667;SDS011;34453;52.198;5.004;2022-12-20T07:51:04;4.93;;;2.03;;
48667;SDS011;34453;52.198;5.004;2022-12-20T07:53:30;5.65;;;2.00;;
48667;SDS011;34453;52.198;5.004;2022-12-20T07:55:58;2.72;;;2.20;;
48667;SDS011;34453;52.198;5.004;2022-12-20T07:58:25;1.90;;;1.75;;
48667;SDS011;34453;52.198;5.004;2022-12-20T08:00:51;3.25;;;1.90;;
48667;SDS011;34453;52.198;5.004;2022-12-20T08:03:18;1.92;;;1.83;;
48667;SDS011;34453;52.198;5.004;2022-12-20T08:05:45;3.25;;;2.13;;
48667;SDS011;34453;52.198;5.004;2022-12-20T08:08:11;2.40;;;2.25;;
48667;SDS011;34453;52.198;5.004;2022-12-20T08:10:36;4.85;;;3.03;;
48667;SDS011;34453;52.198;5.004;2022-12-20T08:13:02;4.35;;;3.95;;
48667;SDS011;34453;52.198;5.004;2022-12-20T08:15:28;3.97;;;2.85;;
48667;SDS011;34453;52.198;5.004;2022-12-20T08:17:53;5.13;;;1.92;;
48667;SDS011;34453;52.198;5.004;2022-12-20T08:20:19;6.28;;;2.88;;
48667;SDS011;34453;52.198;5.004;2022-12-20T08:22:44;3.28;;;2.13;;
48667;SDS011;34453;52.198;5.004;2022-12-20T08:25:09;3.80;;;3.50;;
48667;SDS011;34453;52.198;5.004;2022-12-20T08:27:36;7.13;;;3.17;;
48667;SDS011;34453;52.198;5.004;2022-12-20T08:30:01;6.28;;;2.70;;
48667;SDS011;34453;52.198;5.004;2022-12-20T08:32:26;10.50;;;4.50;;
48667;SDS011;34453;52.198;5.004;2022-12-20T08:34:53;4.07;;;2.90;;
48667;SDS011;34453;52.198;5.004;2022-12-20T08:37:19;8.32;;;2.58;;
48667;SDS011;34453;52.198;5.004;2022-12-20T08:39:44;6.68;;;4.05;;
48667;SDS011;34453;52.198;5.004;2022-12-20T08:42:10;9.40;;;3.00;;
48667;SDS011;34453;52.198;5.004;2022-12-20T08:44:35;3.60;;;2.60;;
48667;SDS011;34453;52.198;5.004;2022-12-20T08:47:00;3.50;;;3.00;;
48667;SDS011;34453;52.198;5.004;2022-12-20T08:49:25;3.47;;;2.08;;
48667;SDS011;34453;52.198;5.004;2022-12-20T08:51:51;3.65;;;2.70;;
48667;SDS011;34453;52.198;5.004;2022-12-20T08:54:16;3.50;;;2.63;;
48667;SDS011;34453;52.198;5.004;2022-12-20T08:56:41;4.22;;;2.13;;
48667;SDS011;34453;52.198;5.004;2022-12-20T08:59:07;2.28;;;2.17;;
48667;SDS011;34453;52.198;5.004;2022-12-20T09:01:32;3.70;;;2.67;;
48667;SDS011;34453;52.198;5.004;2022-12-20T09:03:58;2.05;;;1.85;;
48667;SDS011;34453;52.198;5.004;2022-12-20T09:06:23;4.15;;;2.88;;
48667;SDS011;34453;52.198;5.004;2022-12-20T09:08:48;1.83;;;1.73;;
48667;SDS011;34453;52.198;5.004;2022-12-20T09:11:15;2.72;;;2.08;;
48667;SDS011;34453;52.198;5.004;2022-12-20T09:13:41;2.65;;;2.45;;
48667;SDS011;34453;52.198;5.004;2022-12-20T09:16:06;6.35;;;2.63;;
48667;SDS011;34453;52.198;5.004;2022-12-20T09:18:32;2.45;;;2.33;;
48667;SDS011;34453;52.198;5.004;2022-12-20T09:21:00;5.82;;;2.28;;
48667;SDS011;34453;52.198;5.004;2022-12-20T09:23:26;2.75;;;2.35;;
48667;SDS011;34453;52.198;5.004;2022-12-20T09:25:52;3.08;;;2.70;;
48667;SDS011;34453;52.198;5.004;2022-12-20T09:28:17;2.08;;;1.95;;
48667;SDS011;34453;52.198;5.004;2022-12-20T09:30:42;6.45;;;2.30;;
48667;SDS011;34453;52.198;5.004;2022-12-20T09:33:08;6.38;;;2.42;;
48667;SDS011;34453;52.198;5.004;2022-12-20T09:35:33;3.08;;;2.88;;
48667;SDS011;34453;52.198;5.004;2022-12-20T09:37:58;4.65;;;2.42;;
48667;SDS011;34453;52.198;5.004;2022-12-20T09:40:25;6.13;;;2.67;;
48667;SDS011;34453;52.198;5.004;2022-12-20T09:42:52;2.28;;;1.98;;
48667;SDS011;34453;52.198;5.004;2022-12-20T09:45:21;8.80;;;2.60;;
48667;SDS011;34453;52.198;5.004;2022-12-20T09:47:49;2.53;;;2.33;;
48667;SDS011;34453;52.198;5.004;2022-12-20T09:50:16;5.85;;;3.00;;
48667;SDS011;34453;52.198;5.004;2022-12-20T09:52:48;2.85;;;2.35;;
48667;SDS011;34453;52.198;5.004;2022-12-20T09:58:04;9.70;;;3.15;;
48667;SDS011;34453;52.198;5.004;2022-12-20T10:00:35;3.08;;;2.78;;
48667;SDS011;34453;52.198;5.004;2022-12-20T10:03:04;4.03;;;3.05;;
48667;SDS011;34453;52.198;5.004;2022-12-20T10:13:40;4.95;;;3.10;;
48667;SDS011;34453;52.198;5.004;2022-12-20T10:24:06;4.95;;;3.00;;
48667;SDS011;34453;52.198;5.004;2022-12-20T10:26:35;3.47;;;3.15;;
48667;SDS011;34453;52.198;5.004;2022-12-20T10:29:00;3.97;;;3.30;;
48667;SDS011;34453;52.198;5.004;2022-12-20T10:31:26;8.52;;;3.40;;
48667;SDS011;34453;52.198;5.004;2022-12-20T10:33:51;5.13;;;3.60;;
48667;SDS011;34453;52.198;5.004;2022-12-20T10:38:46;5.57;;;2.85;;
48667;SDS011;34453;52.198;5.004;2022-12-20T10:41:18;5.35;;;3.15;;
48667;SDS011;34453;52.198;5.004;2022-12-20T10:43:45;6.75;;;3.67;;
48667;SDS011;34453;52.198;5.004;2022-12-20T10:46:12;3.47;;;3.13;;
48667;SDS011;34453;52.198;5.004;2022-12-20T10:48:39;4.25;;;3.17;;
48667;SDS011;34453;52.198;5.004;2022-12-20T10:53:33;5.65;;;4.13;;
48667;SDS011;34453;52.198;5.004;2022-12-20T10:56:11;4.65;;;3.90;;
48667;SDS011;34453;52.198;5.004;2022-12-20T10:58:37;6.47;;;3.40;;
48667;SDS011;34453;52.198;5.004;2022-12-20T11:01:10;4.40;;;3.08;;
48667;SDS011;34453;52.198;5.004;2022-12-20T11:03:50;4.25;;;3.28;;
48667;SDS011;34453;52.198;5.004;2022-12-20T11:06:17;4.57;;;3.55;;
48667;SDS011;34453;52.198;5.004;2022-12-20T11:08:42;6.18;;;3.85;;
48667;SDS011;34453;52.198;5.004;2022-12-20T11:11:18;4.22;;;3.85;;
48667;SDS011;34453;52.198;5.004;2022-12-20T11:13:44;3.47;;;3.10;;
48667;SDS011;34453;52.198;5.004;2022-12-20T11:18:52;4.30;;;3.92;;
48667;SDS011;34453;52.198;5.004;2022-12-20T11:24:16;11.52;;;4.18;;
48667;SDS011;34453;52.198;5.004;2022-12-20T11:29:39;4.28;;;4.00;;
48667;SDS011;34453;52.198;5.004;2022-12-20T11:34:49;6.57;;;4.43;;
48667;SDS011;34453;52.198;5.004;2022-12-20T11:37:20;4.30;;;4.05;;
48667;SDS011;34453;52.198;5.004;2022-12-20T11:42:48;7.35;;;4.57;;
48667;SDS011;34453;52.198;5.004;2022-12-20T11:45:24;9.43;;;4.65;;
48667;SDS011;34453;52.198;5.004;2022-12-20T11:52:57;10.13;;;5.00;;
48667;SDS011;34453;52.198;5.004;2022-12-20T11:55:25;5.20;;;4.72;;
48667;SDS011;34453;52.198;5.004;2022-12-20T12:00:35;7.82;;;5.93;;
48667;SDS011;34453;52.198;5.004;2022-12-20T12:05:40;7.60;;;6.13;;
48667;SDS011;34453;52.198;5.004;2022-12-20T12:08:10;5.00;;;4.63;;
48667;SDS011;34453;52.198;5.004;2022-12-20T12:10:39;12.32;;;6.25;;
48667;SDS011;34453;52.198;5.004;2022-12-20T12:15:45;6.72;;;5.82;;
48667;SDS011;34453;52.198;5.004;2022-12-20T12:18:22;7.80;;;6.70;;
48667;SDS011;34453;52.198;5.004;2022-12-20T12:23:25;6.07;;;5.53;;
48667;SDS011;34453;52.198;5.004;2022-12-20T12:25:51;11.82;;;6.60;;
48667;SDS011;34453;52.198;5.004;2022-12-20T12:28:16;10.73;;;5.88;;
48667;SDS011;34453;52.198;5.004;2022-12-20T12:30:44;6.68;;;6.18;;
48667;SDS011;34453;52.198;5.004;2022-12-20T12:33:15;7.07;;;6.50;;
48667;SDS011;34453;52.198;5.004;2022-12-20T12:35:50;7.25;;;6.53;;
48667;SDS011;34453;52.198;5.004;2022-12-20T12:45:57;10.85;;;7.25;;
48667;SDS011;34453;52.198;5.004;2022-12-20T12:50:49;7.10;;;6.63;;
48667;SDS011;34453;52.198;5.004;2022-12-20T12:53:25;13.13;;;7.63;;
48667;SDS011;34453;52.198;5.004;2022-12-20T12:55:54;9.63;;;7.60;;
48667;SDS011;34453;52.198;5.004;2022-12-20T13:00:51;8.98;;;8.13;;
48667;SDS011;34453;52.198;5.004;2022-12-20T13:11:38;8.15;;;7.40;;
48667;SDS011;34453;52.198;5.004;2022-12-20T13:21:41;7.75;;;7.15;;
48667;SDS011;34453;52.198;5.004;2022-12-20T13:26:51;9.07;;;7.13;;
48667;SDS011;34453;52.198;5.004;2022-12-20T13:29:22;12.20;;;8.02;;
48667;SDS011;34453;52.198;5.004;2022-12-20T13:31:48;9.80;;;7.93;;
48667;SDS011;34453;52.198;5.004;2022-12-20T13:34:36;8.00;;;7.25;;
48667;SDS011;34453;52.198;5.004;2022-12-20T13:36:59;9.63;;;7.53;;
48667;SDS011;34453;52.198;5.004;2022-12-20T13:39:30;8.15;;;7.55;;
48667;SDS011;34453;52.198;5.004;2022-12-20T13:42:33;10.82;;;8.13;;
48667;SDS011;34453;52.198;5.004;2022-12-20T13:44:49;7.50;;;6.80;;
48667;SDS011;34453;52.198;5.004;2022-12-20T13:47:25;9.07;;;7.55;;
48667;SDS011;34453;52.198;5.004;2022-12-20T13:49:52;8.73;;;8.00;;
48667;SDS011;34453;52.198;5.004;2022-12-20T13:52:26;8.68;;;7.57;;
48667;SDS011;34453;52.198;5.004;2022-12-20T13:54:53;10.23;;;7.28;;
48667;SDS011;34453;52.198;5.004;2022-12-20T13:57:25;8.32;;;7.57;;
48667;SDS011;34453;52.198;5.004;2022-12-20T13:59:51;8.32;;;7.22;;
48667;SDS011;34453;52.198;5.004;2022-12-20T14:02:19;7.82;;;7.20;;
48667;SDS011;34453;52.198;5.004;2022-12-20T14:04:45;8.38;;;6.93;;
48667;SDS011;34453;52.198;5.004;2022-12-20T14:07:15;8.02;;;7.25;;
48667;SDS011;34453;52.198;5.004;2022-12-20T14:09:43;8.50;;;7.68;;
48667;SDS011;34453;52.198;5.004;2022-12-20T14:12:12;8.32;;;7.50;;
48667;SDS011;34453;52.198;5.004;2022-12-20T14:14:48;8.30;;;7.45;;
48667;SDS011;34453;52.198;5.004;2022-12-20T14:17:32;7.75;;;7.10;;
48667;SDS011;34453;52.198;5.004;2022-12-20T14:20:13;9.55;;;8.65;;
48667;SDS011;34453;52.198;5.004;2022-12-20T14:25:10;8.30;;;7.60;;
48667;SDS011;34453;52.198;5.004;2022-12-20T14:27:37;11.02;;;8.43;;
48667;SDS011;34453;52.198;5.004;2022-12-20T14:30:03;8.77;;;7.88;;
48667;SDS011;34453;52.198;5.004;2022-12-20T14:32:29;8.98;;;8.25;;
48667;SDS011;34453;52.198;5.004;2022-12-20T14:34:55;11.50;;;10.40;;
48667;SDS011;34453;52.198;5.004;2022-12-20T14:42:25;12.98;;;9.00;;
48667;SDS011;34453;52.198;5.004;2022-12-20T14:45:00;10.00;;;9.20;;
48667;SDS011;34453;52.198;5.004;2022-12-20T14:47:26;11.13;;;10.00;;
48667;SDS011;34453;52.198;5.004;2022-12-20T14:49:56;10.50;;;9.60;;
48667;SDS011;34453;52.198;5.004;2022-12-20T14:57:23;12.10;;;9.70;;
48667;SDS011;34453;52.198;5.004;2022-12-20T15:11:11;10.50;;;9.50;;
48667;SDS011;34453;52.198;5.004;2022-12-20T15:15:59;12.50;;;9.85;;
48667;SDS011;34453;52.198;5.004;2022-12-20T15:18:24;9.90;;;9.10;;
48667;SDS011;34453;52.198;5.004;2022-12-20T15:21:00;10.60;;;9.43;;
48667;SDS011;34453;52.198;5.004;2022-12-20T15:23:26;11.98;;;10.85;;
48667;SDS011;34453;52.198;5.004;2022-12-20T15:25:51;10.48;;;9.55;;
48667;SDS011;34453;52.198;5.004;2022-12-20T15:28:17;10.98;;;9.88;;
48667;SDS011;34453;52.198;5.004;2022-12-20T15:30:43;12.23;;;10.13;;
48667;SDS011;34453;52.198;5.004;2022-12-20T15:33:13;10.82;;;10.02;;
48667;SDS011;34453;52.198;5.004;2022-12-20T15:35:39;17.77;;;10.90;;
48667;SDS011;34453;52.198;5.004;2022-12-20T15:38:04;11.70;;;10.60;;
48667;SDS011;34453;52.198;5.004;2022-12-20T15:40:30;14.77;;;10.85;;
48667;SDS011;34453;52.198;5.004;2022-12-20T15:42:55;12.57;;;10.73;;
48667;SDS011;34453;52.198;5.004;2022-12-20T15:45:20;13.57;;;11.13;;
48667;SDS011;34453;52.198;5.004;2022-12-20T15:47:46;11.55;;;10.57;;
48667;SDS011;34453;52.198;5.004;2022-12-20T15:50:13;12.07;;;10.95;;
48667;SDS011;34453;52.198;5.004;2022-12-20T15:52:38;15.77;;;12.00;;
48667;SDS011;34453;52.198;5.004;2022-12-20T15:55:05;13.65;;;12.35;;
48667;SDS011;34453;52.198;5.004;2022-12-20T15:57:50;16.10;;;13.35;;
48667;SDS011;34453;52.198;5.004;2022-12-20T16:00:15;13.88;;;12.48;;
48667;SDS011;34453;52.198;5.004;2022-12-20T16:02:41;13.82;;;12.40;;
48667;SDS011;34453;52.198;5.004;2022-12-20T16:05:08;14.90;;;13.07;;
48667;SDS011;34453;52.198;5.004;2022-12-20T16:07:34;13.90;;;12.65;;
48667;SDS011;34453;52.198;5.004;2022-12-20T16:09:59;16.17;;;12.95;;
48667;SDS011;34453;52.198;5.004;2022-12-20T16:12:26;15.38;;;12.75;;
48667;SDS011;34453;52.198;5.004;2022-12-20T16:14:52;16.20;;;13.77;;
48667;SDS011;34453;52.198;5.004;2022-12-20T16:17:17;15.52;;;13.77;;
48667;SDS011;34453;52.198;5.004;2022-12-20T16:19:42;13.55;;;12.27;;
48667;SDS011;34453;52.198;5.004;2022-12-20T16:22:15;14.68;;;12.93;;
48667;SDS011;34453;52.198;5.004;2022-12-20T16:24:40;15.15;;;13.63;;
48667;SDS011;34453;52.198;5.004;2022-12-20T16:27:05;14.60;;;13.20;;
48667;SDS011;34453;52.198;5.004;2022-12-20T16:29:32;15.95;;;14.25;;
48667;SDS011;34453;52.198;5.004;2022-12-20T16:31:57;15.65;;;13.77;;
48667;SDS011;34453;52.198;5.004;2022-12-20T16:34:23;16.30;;;14.73;;
48667;SDS011;34453;52.198;5.004;2022-12-20T16:36:48;15.52;;;13.93;;
48667;SDS011;34453;52.198;5.004;2022-12-20T16:39:14;16.02;;;14.38;;
48667;SDS011;34453;52.198;5.004;2022-12-20T16:41:40;15.27;;;13.55;;
48667;SDS011;34453;52.198;5.004;2022-12-20T16:44:09;15.52;;;13.95;;
48667;SDS011;34453;52.198;5.004;2022-12-20T16:46:36;14.80;;;13.50;;
48667;SDS011;34453;52.198;5.004;2022-12-20T16:49:02;15.20;;;13.25;;